Darstellungsparameter: Aktuell verwendete Einstellungen:
Skalierung der Graphiken ... ?
xyx+y,   Skalierungsfaktor:      Skalierung: Modus: x, Faktor: 1
Darstellungszeitraum ... ?
Vom - - bis: - -   Zeitraum: 18.05.2010 - 18.05.2010
Min/Max/Avg-Anzeige ... ?
Zeige MMA aktuell
Zeige MMA Monat
Zeige MMA alles
Zeige --A aktuell
Zeige --A Monat
Zeige --A alles
Keine MMA-Anzeige
MMA:
Minimum Maximum Average (ber die Originaldaten)
MMA-Basis: 23.02.2003 - 19.05.2010
Quicknavigation für Darstellung... ?
Tage:      1T, 2T, 3T, 5T -1T -2T -3T -5T +1T +2T +3T +5T
Wochen: 1W, 2W, 3W -1W -2W -3W +1W +2W +3W
Monate: 1M, 3M, 6M -1M -3M -6M +1M +3M +6M
Jahre:    1J, 3J, 5J, 10J -1J -3J -5J -10J +1J +3J +5J +10J
Nutze für die Darstellung ... ?
Originaldaten oder Mittelwerte auf ...
Stundenbasis Tagesbasis Wochenbasis
Monatsbasis Jahresbasis      Datenbasis: Original-Daten
Darstellen als:
Statistik (Auto) Statistik J:M      Darstellung:
Zur Graphik,    zurück zur Übersicht aller Sensoren.
 
Tabellarische Datenbersicht: ?
 
Sensor: Nr:Datum:Temp:Abs-Feuchte:Windchill:Wind:
Aussen-T/F 1 18-05-2010 00:10:04 7.4 C 7.32 g/m*3 7.4 C 0 km/h
2 18-05-2010 00:22:04 7.1 C 7.18 g/m*3 7.1 C 0 km/h
3 18-05-2010 00:34:04 7 C 7.13 g/m*3 7 C 0 km/h
4 18-05-2010 00:46:04 7 C 7.13 g/m*3 7 C 0 km/h
5 18-05-2010 00:58:04 6.9 C 7.16 g/m*3 6.9 C 0 km/h
6 18-05-2010 01:10:04 6.8 C 7.11 g/m*3 6.8 C 0 km/h
7 18-05-2010 01:22:04 6.6 C 7.02 g/m*3 6.6 C 0 km/h
8 18-05-2010 01:34:04 6.4 C 6.85 g/m*3 6.4 C 0 km/h
9 18-05-2010 01:46:04 6.3 C 6.88 g/m*3 6.3 C 0 km/h
10 18-05-2010 01:58:04 6.2 C 6.84 g/m*3 6.2 C 0 km/h
11 18-05-2010 02:10:04 6.3 C 6.88 g/m*3 6.3 C 0 km/h
12 18-05-2010 02:22:04 6.2 C 6.84 g/m*3 6.2 C 0 km/h
13 18-05-2010 02:34:04 6.1 C 6.79 g/m*3 6.1 C 0 km/h
14 18-05-2010 02:46:04 6 C 6.75 g/m*3 6 C 0 km/h
15 18-05-2010 02:58:04 5.9 C 6.71 g/m*3 5.9 C 0 km/h
16 18-05-2010 03:10:04 5.8 C 6.66 g/m*3 5.8 C 0 km/h
17 18-05-2010 03:22:04 5.7 C 6.62 g/m*3 5.7 C 0 km/h
18 18-05-2010 03:34:05 5.7 C 6.69 g/m*3 5.7 C 0 km/h
19 18-05-2010 03:46:05 5.8 C 6.73 g/m*3 5.8 C 0 km/h
20 18-05-2010 03:58:05 6 C 6.75 g/m*3 6 C 0 km/h
21 18-05-2010 04:10:05 6.3 C 6.96 g/m*3 6.3 C 0 km/h
22 18-05-2010 04:22:05 6.3 C 6.96 g/m*3 6.3 C 0 km/h
23 18-05-2010 04:34:05 6.3 C 6.96 g/m*3 6.3 C 0 km/h
24 18-05-2010 04:46:05 6.2 C 6.91 g/m*3 6.2 C 0 km/h
25 18-05-2010 04:58:05 6.3 C 6.88 g/m*3 6.3 C 0 km/h
Sensor: Nr:Datum:Temp:Abs-Feuchte:Windchill:Wind:
Aussen-T/F 26 18-05-2010 05:10:05 6.4 C 7 g/m*3 6.4 C 0 km/h
27 18-05-2010 05:22:05 6.5 C 7.05 g/m*3 6.5 C 0 km/h
28 18-05-2010 05:34:05 6.4 C 6.93 g/m*3 6.4 C 0 km/h
29 18-05-2010 05:46:05 6.5 C 6.97 g/m*3 6.5 C 0 km/h
30 18-05-2010 05:58:05 6.7 C 7.07 g/m*3 6.7 C 0 km/h
31 18-05-2010 06:10:05 6.9 C 7.16 g/m*3 6.9 C 0 km/h
32 18-05-2010 06:22:05 6.9 C 7.16 g/m*3 6.9 C 0 km/h
33 18-05-2010 06:34:05 7.1 C 7.18 g/m*3 7.1 C 0 km/h
34 18-05-2010 06:46:05 7.3 C 7.27 g/m*3 7.3 C 0 km/h
35 18-05-2010 06:58:05 7.5 C 7.28 g/m*3 7.5 C 0 km/h
36 18-05-2010 07:10:04 7.9 C 7.47 g/m*3 7.9 C 0 km/h
37 18-05-2010 07:22:03 7.9 C 7.39 g/m*3 7.9 C 0 km/h
38 18-05-2010 07:34:03 8 C 7.36 g/m*3 8 C 0 km/h
39 18-05-2010 07:46:01 8.5 C 7.6 g/m*3 8.5 C 0 km/h
40 18-05-2010 07:58:01 8.7 C 7.52 g/m*3 8.7 C 0 km/h
41 18-05-2010 08:10:02 9 C 7.23 g/m*3 9 C 0 km/h
42 18-05-2010 08:22:01 8.7 C 6.66 g/m*3 8.7 C 0 km/h
43 18-05-2010 08:34:02 9 C 6.44 g/m*3 9 C 0 km/h
44 18-05-2010 08:46:02 9.3 C 6.56 g/m*3 9.3 C 0 km/h
45 18-05-2010 08:58:02 9.2 C 6.52 g/m*3 9.2 C 0 km/h
46 18-05-2010 09:10:01 9.3 C 6.47 g/m*3 9.3 C 0 km/h
47 18-05-2010 09:22:02 9.6 C 6.41 g/m*3 9.6 C 0 km/h
48 18-05-2010 09:34:01 9.9 C 6.35 g/m*3 9.9 C 0 km/h
49 18-05-2010 09:46:02 9.7 C 6.08 g/m*3 9.7 C 0 km/h
50 18-05-2010 09:58:02 10 C 6.01 g/m*3 10 C 0 km/h
Sensor: Nr:Datum:Temp:Abs-Feuchte:Windchill:Wind:
Aussen-T/F 51 18-05-2010 10:10:01 10.5 C 6.01 g/m*3 10.5 C 0 km/h
52 18-05-2010 10:22:01 10.5 C 6.01 g/m*3 10.5 C 0 km/h
53 18-05-2010 10:34:02 10.6 C 5.66 g/m*3 10.6 C 0 km/h
54 18-05-2010 10:46:02 11.2 C 5.57 g/m*3 11.2 C 0 km/h
55 18-05-2010 10:58:02 11.4 C 5.65 g/m*3 11.4 C 0 km/h
56 18-05-2010 11:10:02 12.5 C 5.61 g/m*3 12.5 C 0 km/h
57 18-05-2010 11:22:02 12.4 C 5.24 g/m*3 12.4 C 0 km/h
58 18-05-2010 11:34:02 12.1 C 5.25 g/m*3 12.1 C 0 km/h
59 18-05-2010 11:46:02 13 C 5.22 g/m*3 13 C 0 km/h
60 18-05-2010 11:58:02 13.7 C 5.21 g/m*3 13.7 C 0 km/h
61 18-05-2010 12:10:03 13.7 C 4.86 g/m*3 13.7 C 0 km/h
62 18-05-2010 12:22:02 12.7 C 5.12 g/m*3 12.7 C 0 km/h
63 18-05-2010 12:34:02 14.2 C 5.13 g/m*3 14.2 C 0 km/h
64 18-05-2010 12:46:01 14.4 C 4.82 g/m*3 14.4 C 0 km/h
65 18-05-2010 12:58:01 15.2 C 4.67 g/m*3 15.2 C 0 km/h
66 18-05-2010 13:10:02 16.8 C 5 g/m*3 16.8 C 0 km/h
67 18-05-2010 13:22:01 16.9 C 4.46 g/m*3 16.9 C 0 km/h
68 18-05-2010 13:34:01 16.5 C 4.49 g/m*3 16.5 C 0 km/h
69 18-05-2010 13:46:01 17.8 C 4.4 g/m*3 17.8 C 0 km/h
70 18-05-2010 13:58:01 15.8 C 4.04 g/m*3 15.8 C 0 km/h
71 18-05-2010 14:10:02 15.1 C 4.13 g/m*3 15.1 C 0 km/h
72 18-05-2010 14:22:01 15.8 C 4.17 g/m*3 15.8 C 0 km/h
73 18-05-2010 14:34:01 15 C 4.23 g/m*3 15 C 0 km/h
74 18-05-2010 14:46:01 15.8 C 4.31 g/m*3 15.8 C 0 km/h
75 18-05-2010 14:58:01 16.3 C 4.16 g/m*3 16.3 C 0 km/h
Sensor: Nr:Datum:Temp:Abs-Feuchte:Windchill:Wind:
Aussen-T/F 76 18-05-2010 15:10:02 16.4 C 4.47 g/m*3 16.4 C 0 km/h
77 18-05-2010 15:22:02 16.5 C 4.21 g/m*3 16.5 C 0 km/h
78 18-05-2010 15:34:01 16.6 C 3.96 g/m*3 16.6 C 0 km/h
79 18-05-2010 15:46:02 16 C 3.95 g/m*3 16 C 0 km/h
80 18-05-2010 15:58:02 16.9 C 4.17 g/m*3 16.9 C 0 km/h
81 18-05-2010 16:10:01 18.2 C 4.04 g/m*3 18.2 C 0 km/h
82 18-05-2010 16:22:02 18.2 C 3.89 g/m*3 18.2 C 0 km/h
83 18-05-2010 16:34:01 17.9 C 3.05 g/m*3 17.9 C 0 km/h
84 18-05-2010 16:46:02 17.6 C 3.3 g/m*3 17.6 C 0 km/h
85 18-05-2010 16:58:02 16.8 C 3.29 g/m*3 16.8 C 0 km/h
86 18-05-2010 17:10:02 16.6 C 3.53 g/m*3 16.6 C 0 km/h
87 18-05-2010 17:22:02 17.7 C 3.77 g/m*3 17.7 C 0 km/h
88 18-05-2010 17:34:02 17.5 C 4.03 g/m*3 17.5 C 0 km/h
89 18-05-2010 17:46:02 16.8 C 3.86 g/m*3 16.8 C 0 km/h
90 18-05-2010 17:58:02 17.2 C 3.66 g/m*3 17.2 C 0 km/h
91 18-05-2010 18:10:01 18.2 C 3.57 g/m*3 18.2 C 0 km/h
92 18-05-2010 18:22:02 18.2 C 3.73 g/m*3 18.2 C 0 km/h
93 18-05-2010 18:34:02 16.9 C 3.88 g/m*3 16.9 C 0 km/h
94 18-05-2010 18:46:02 16.2 C 4.14 g/m*3 16.2 C 0 km/h
95 18-05-2010 18:58:02 16.4 C 4.33 g/m*3 16.4 C 0 km/h
96 18-05-2010 19:10:02 15.7 C 4.42 g/m*3 15.7 C 0 km/h
97 18-05-2010 19:22:02 16.1 C 4.25 g/m*3 16.1 C 0 km/h
98 18-05-2010 19:34:03 15.3 C 4.31 g/m*3 15.3 C 0 km/h
99 18-05-2010 19:46:02 14.8 C 4.56 g/m*3 14.8 C 0 km/h
100 18-05-2010 19:58:02 14.7 C 4.66 g/m*3 14.7 C 0 km/h
Sensor: Nr:Datum:Temp:Abs-Feuchte:Windchill:Wind:
Aussen-T/F 101 18-05-2010 20:10:02 14.5 C 4.6 g/m*3 14.5 C 0 km/h
102 18-05-2010 20:22:01 14.4 C 4.94 g/m*3 14.4 C 0 km/h
103 18-05-2010 20:34:02 14.5 C 4.85 g/m*3 14.5 C 0 km/h
104 18-05-2010 20:46:02 14.1 C 4.85 g/m*3 14.1 C 0 km/h
105 18-05-2010 20:58:02 13.8 C 4.89 g/m*3 13.8 C 0 km/h
106 18-05-2010 21:10:02 13.5 C 5.03 g/m*3 13.5 C 0 km/h
107 18-05-2010 21:22:02 13.1 C 4.79 g/m*3 13.1 C 0 km/h
108 18-05-2010 21:34:02 12.6 C 4.76 g/m*3 12.6 C 0 km/h
109 18-05-2010 21:46:02 12.4 C 4.48 g/m*3 12.4 C 0 km/h
110 18-05-2010 21:58:02 12.4 C 4.37 g/m*3 12.4 C 0 km/h
111 18-05-2010 22:10:02 12 C 4.37 g/m*3 12 C 0 km/h
112 18-05-2010 22:22:02 11.7 C 4.39 g/m*3 11.7 C 0 km/h
113 18-05-2010 22:35:02 11.5 C 4.44 g/m*3 11.5 C 0 km/h
114 18-05-2010 22:47:02 11.2 C 4.66 g/m*3 11.2 C 0 km/h
115 18-05-2010 22:59:02 10.8 C 4.94 g/m*3 10.8 C 0 km/h
116 18-05-2010 23:11:02 10.5 C 5.04 g/m*3 10.5 C 0 km/h
117 18-05-2010 23:23:02 10.2 C 5.33 g/m*3 10.2 C 0 km/h
118 18-05-2010 23:35:03 9.9 C 5.51 g/m*3 9.9 C 0 km/h
119 18-05-2010 23:47:03 9.7 C 5.53 g/m*3 9.7 C 0 km/h
120 18-05-2010 23:59:03 9.6 C 5.59 g/m*3 9.6 C 0 km/h

Legende:
   Min
   Max


Maximal/Minimal-Werte vom 23.02.2003 - 19.05.2010

Sensor Min Max Avg
Temp
(Aussen-T/F)
-16.4 °C
20-12-2009  01:30:01
36.2 °C
08-08-2003  16:43:01
11.55 °C

Die Daten stammen von einer Davis Vantage Pro 2 Wetter-Station und werden unter Linux mit der Software wview2wettercgi und aufbereitet. Alle Angaben erfolgen ohne Gewähr für ihre Vollständigkeit oder Richtigkeit.
Kontakt: Rainer Krienke krienke@uni-koblenz.de . Meine Webseiten an der Uni Koblenz oder privat.
Version: $Revision: 0.78 $